createdAt,value
2023-04-15T00:00:02.379Z,0.00
2023-04-15T00:01:03.383Z,0.00
2023-04-15T00:02:02.463Z,0.00
2023-04-15T00:03:02.611Z,0.00
2023-04-15T00:04:02.454Z,0.00
2023-04-15T00:05:02.381Z,0.00
2023-04-15T00:06:02.489Z,0.00
2023-04-15T00:07:02.317Z,0.00
2023-04-15T00:08:02.312Z,0.00
2023-04-15T00:09:02.563Z,0.00
2023-04-15T00:10:02.348Z,0.00
2023-04-15T00:11:02.293Z,0.00
2023-04-15T00:12:02.274Z,0.00
2023-04-15T00:13:02.283Z,0.00
2023-04-15T00:14:02.343Z,0.00
2023-04-15T00:15:02.292Z,0.00
2023-04-15T00:16:02.446Z,0.00
2023-04-15T00:17:02.322Z,0.00
2023-04-15T00:18:02.321Z,0.00
2023-04-15T00:19:02.434Z,0.00
2023-04-15T00:20:02.224Z,0.00
2023-04-15T00:21:02.264Z,0.00
2023-04-15T00:22:02.246Z,0.00
2023-04-15T00:23:02.219Z,0.00
2023-04-15T00:24:02.182Z,0.00
2023-04-15T00:25:02.171Z,0.00
2023-04-15T00:26:02.245Z,0.00
2023-04-15T00:27:02.175Z,0.00
2023-04-15T00:28:02.199Z,0.00
2023-04-15T00:29:02.365Z,0.00
2023-04-15T00:30:02.148Z,0.00
2023-04-15T00:31:02.205Z,0.00
2023-04-15T00:32:02.100Z,0.00
2023-04-15T00:33:02.113Z,0.00
2023-04-15T00:34:02.099Z,0.00
2023-04-15T00:35:02.066Z,0.00
2023-04-15T00:36:02.099Z,0.00
2023-04-15T00:37:02.071Z,0.00
2023-04-15T00:38:02.005Z,0.00
2023-04-15T00:39:02.246Z,0.00
2023-04-15T00:40:02.003Z,0.00
2023-04-15T00:41:02.033Z,0.00
2023-04-15T00:42:02.004Z,0.00
2023-04-15T00:43:02.005Z,0.00
2023-04-15T00:44:02.011Z,0.00
2023-04-15T00:45:01.962Z,0.00
2023-04-15T00:46:01.934Z,0.00
2023-04-15T00:47:01.953Z,0.00
2023-04-15T00:48:01.974Z,0.00
2023-04-15T00:49:02.192Z,0.00
2023-04-15T00:50:01.946Z,0.00
2023-04-15T00:51:01.947Z,0.00
2023-04-15T00:52:01.876Z,0.00
2023-04-15T00:53:01.895Z,0.00
2023-04-15T00:54:02.006Z,0.00
2023-04-15T00:55:01.958Z,0.00
2023-04-15T00:56:01.856Z,0.00
2023-04-15T00:57:01.935Z,0.00
2023-04-15T00:58:01.960Z,0.00
2023-04-15T00:59:02.012Z,0.00
2023-04-15T01:00:01.787Z,0.00
2023-04-15T01:01:01.836Z,0.00
2023-04-15T01:02:01.928Z,0.00
2023-04-15T01:03:01.932Z,0.00
2023-04-15T01:04:01.855Z,0.00
2023-04-15T01:05:01.831Z,0.00
2023-04-15T01:06:03.946Z,0.00
2023-04-15T01:07:01.731Z,0.00
2023-04-15T01:08:01.736Z,0.00
2023-04-15T01:09:02.055Z,0.00
2023-04-15T01:10:01.701Z,0.00
2023-04-15T01:11:01.679Z,0.00
2023-04-15T01:12:01.759Z,0.00
2023-04-15T01:13:01.680Z,0.00
2023-04-15T01:14:01.656Z,0.00
2023-04-15T01:15:01.711Z,0.00
2023-04-15T01:16:01.667Z,0.00
2023-04-15T01:17:01.650Z,0.00
2023-04-15T01:18:01.685Z,0.00
2023-04-15T01:19:01.887Z,0.00
2023-04-15T01:20:01.750Z,0.00
2023-04-15T01:21:01.677Z,0.00
2023-04-15T01:22:01.591Z,0.00
2023-04-15T01:23:01.566Z,0.00
2023-04-15T01:24:01.598Z,0.00
2023-04-15T01:25:01.551Z,0.00
2023-04-15T01:26:01.588Z,0.00
2023-04-15T01:27:01.559Z,0.00
2023-04-15T01:28:01.570Z,0.00
2023-04-15T01:29:01.636Z,0.00
2023-04-15T01:30:01.524Z,0.00
2023-04-15T01:31:01.548Z,0.00
2023-04-15T01:32:01.478Z,0.00
2023-04-15T01:33:01.487Z,0.00
2023-04-15T01:34:01.494Z,0.00
2023-04-15T01:35:01.476Z,0.00
2023-04-15T01:36:01.444Z,0.00
2023-04-15T01:37:01.455Z,0.00
2023-04-15T01:38:01.433Z,0.00
2023-04-15T01:39:01.633Z,0.00
2023-04-15T01:40:01.435Z,0.00
2023-04-15T01:41:01.413Z,0.00
2023-04-15T01:42:01.451Z,0.00
2023-04-15T01:43:01.376Z,0.00
2023-04-15T01:44:01.378Z,0.00
2023-04-15T01:45:01.394Z,0.00
2023-04-15T01:46:01.389Z,0.00
2023-04-15T01:47:01.416Z,0.00
2023-04-15T01:48:01.357Z,0.00
2023-04-15T01:49:01.652Z,0.00
2023-04-15T01:50:01.395Z,0.00
2023-04-15T01:51:01.378Z,0.00
2023-04-15T01:52:01.294Z,0.00
2023-04-15T01:53:01.293Z,0.00
2023-04-15T01:54:01.302Z,0.00
2023-04-15T01:55:01.277Z,0.00
2023-04-15T01:56:01.264Z,0.00
2023-04-15T01:57:01.228Z,0.00
2023-04-15T01:58:01.254Z,0.00
2023-04-15T01:59:01.516Z,0.00
2023-04-15T02:00:01.278Z,0.00
2023-04-15T02:01:01.256Z,0.00
2023-04-15T02:02:01.284Z,0.00
2023-04-15T02:03:01.260Z,0.00
2023-04-15T02:04:01.265Z,0.00
2023-04-15T02:05:01.166Z,0.00
2023-04-15T02:06:01.238Z,0.00
2023-04-15T02:07:01.128Z,0.00
2023-04-15T02:08:01.125Z,0.00
2023-04-15T02:09:01.357Z,0.00
2023-04-15T02:10:01.125Z,0.00
2023-04-15T02:11:01.140Z,0.00
2023-04-15T02:12:01.111Z,0.00
2023-04-15T02:13:01.085Z,0.00
2023-04-15T02:14:01.095Z,0.00
2023-04-15T02:15:01.087Z,0.00
2023-04-15T02:16:01.070Z,0.00
2023-04-15T02:17:01.049Z,0.00
2023-04-15T02:18:01.148Z,0.00
2023-04-15T02:19:01.248Z,0.00
2023-04-15T02:20:01.050Z,0.00
2023-04-15T02:21:00.999Z,0.00
2023-04-15T02:22:01.013Z,0.00
2023-04-15T02:23:00.996Z,0.00
2023-04-15T02:24:01.002Z,0.00
2023-04-15T02:25:00.963Z,0.00
2023-04-15T02:26:00.950Z,0.00
2023-04-15T02:27:00.948Z,0.00
2023-04-15T02:28:00.945Z,0.00
2023-04-15T02:29:01.217Z,0.00
2023-04-15T02:30:00.920Z,0.00
2023-04-15T02:31:00.954Z,0.00
2023-04-15T02:32:01.053Z,0.00
2023-04-15T02:33:00.974Z,0.00
2023-04-15T02:34:00.899Z,0.00
2023-04-15T02:35:00.903Z,0.00
2023-04-15T02:36:00.921Z,0.00
2023-04-15T02:37:00.837Z,0.00
2023-04-15T02:38:00.868Z,0.00
2023-04-15T02:39:01.075Z,0.00
2023-04-15T02:40:00.843Z,0.00
2023-04-15T02:41:00.801Z,0.00
2023-04-15T02:42:00.820Z,0.00
2023-04-15T02:43:00.817Z,0.00
2023-04-15T02:44:00.833Z,0.00
2023-04-15T02:45:00.771Z,0.00
2023-04-15T02:46:00.880Z,0.00
2023-04-15T02:47:00.751Z,0.00
2023-04-15T02:48:00.790Z,0.00
2023-04-15T02:49:00.900Z,0.00
2023-04-15T02:50:00.741Z,0.00
2023-04-15T02:51:00.753Z,0.00
2023-04-15T02:52:00.721Z,0.00
2023-04-15T02:53:00.704Z,0.00
2023-04-15T02:54:00.697Z,0.00
2023-04-15T02:55:00.685Z,0.00
2023-04-15T02:56:00.672Z,0.00
2023-04-15T02:57:00.701Z,0.00
2023-04-15T02:58:00.761Z,0.00
2023-04-15T02:59:00.901Z,0.00
2023-04-15T03:00:00.616Z,0.00
2023-04-15T03:01:00.643Z,0.00
2023-04-15T03:02:00.758Z,0.00
2023-04-15T03:03:00.773Z,0.00
2023-04-15T03:04:00.768Z,0.00
2023-04-15T03:05:00.555Z,0.00
2023-04-15T03:06:00.651Z,0.00
2023-04-15T03:07:00.560Z,0.00
2023-04-15T03:08:00.519Z,0.00
2023-04-15T03:09:00.742Z,0.00
2023-04-15T03:10:00.575Z,0.00
2023-04-15T03:11:00.576Z,0.00
2023-04-15T03:12:00.489Z,0.00
2023-04-15T03:13:00.506Z,0.00
2023-04-15T03:14:00.520Z,0.00
2023-04-15T03:15:00.515Z,0.00
2023-04-15T03:16:00.477Z,0.00
2023-04-15T03:17:00.455Z,0.00
2023-04-15T03:18:00.504Z,0.00
2023-04-15T03:19:00.612Z,0.00
2023-04-15T03:20:00.460Z,0.00
2023-04-15T03:21:00.414Z,0.00
2023-04-15T03:22:00.406Z,0.00
2023-04-15T03:23:00.459Z,0.00
2023-04-15T03:24:00.403Z,0.00
2023-04-15T03:25:00.396Z,0.00
2023-04-15T03:26:00.384Z,0.00
2023-04-15T03:27:00.343Z,0.00
2023-04-15T03:28:00.335Z,0.00
2023-04-15T03:29:00.591Z,0.00
2023-04-15T03:30:00.318Z,0.00
2023-04-15T03:31:00.563Z,0.00
2023-04-15T03:32:00.311Z,0.00
2023-04-15T03:33:00.363Z,0.00
2023-04-15T03:34:00.381Z,0.00
2023-04-15T03:35:00.257Z,0.00
2023-04-15T03:36:00.292Z,0.00
2023-04-15T03:37:00.268Z,0.00
2023-04-15T03:38:00.283Z,0.00
2023-04-15T03:39:00.509Z,0.00
2023-04-15T03:40:00.215Z,0.00
2023-04-15T03:41:00.306Z,0.00
2023-04-15T03:42:00.223Z,0.00
2023-04-15T03:43:00.188Z,0.00
2023-04-15T03:44:00.221Z,0.00
2023-04-15T03:45:00.213Z,0.00
2023-04-15T03:46:01.847Z,0.00
2023-04-15T03:47:00.160Z,0.00
2023-04-15T03:48:11.389Z,0.00
2023-04-15T03:49:00.526Z,0.00
2023-04-15T03:50:00.167Z,0.00
2023-04-15T03:51:00.175Z,0.00
2023-04-15T03:52:00.146Z,0.00
2023-04-15T03:53:00.118Z,0.00
2023-04-15T03:54:00.190Z,0.00
2023-04-15T03:55:00.139Z,0.00
2023-04-15T03:56:00.135Z,0.00
2023-04-15T03:57:00.037Z,1.00
2023-04-15T03:58:00.061Z,0.00
2023-04-15T03:59:00.390Z,0.00
2023-04-15T04:00:00.057Z,1.00
2023-04-15T04:00:59.964Z,1.00
2023-04-15T04:02:00.130Z,1.00
2023-04-15T04:03:00.105Z,1.00
2023-04-15T04:04:00.078Z,2.00
2023-04-15T04:04:59.929Z,2.00
2023-04-15T04:05:59.918Z,1.00
2023-04-15T04:06:59.930Z,2.00
2023-04-15T04:07:59.890Z,1.00
2023-04-15T04:09:00.095Z,3.00
2023-04-15T04:09:59.890Z,6.00
2023-04-15T04:10:59.871Z,8.00
2023-04-15T04:11:59.867Z,8.00
2023-04-15T04:12:59.879Z,9.00
2023-04-15T04:13:59.864Z,8.00
2023-04-15T04:14:59.825Z,13.00
2023-04-15T04:15:59.892Z,17.00
2023-04-15T04:16:59.843Z,24.00
2023-04-15T04:17:59.834Z,23.00
2023-04-15T04:18:59.879Z,29.00
2023-04-15T04:19:59.858Z,33.00
2023-04-15T04:20:59.793Z,40.00
2023-04-15T04:21:59.774Z,50.00
2023-04-15T04:22:59.770Z,57.00
2023-04-15T04:23:59.759Z,64.00
2023-04-15T04:24:59.742Z,75.00
2023-04-15T04:25:59.717Z,84.00
2023-04-15T04:26:59.702Z,98.00
2023-04-15T04:27:59.703Z,108.00
2023-04-15T04:28:59.883Z,122.00
2023-04-15T04:29:59.756Z,134.00
2023-04-15T04:30:59.694Z,152.00
2023-04-15T04:31:59.692Z,177.00
2023-04-15T04:32:59.713Z,192.00
2023-04-15T04:33:59.675Z,210.00
2023-04-15T04:34:59.624Z,228.00
2023-04-15T04:35:59.643Z,246.00
2023-04-15T04:36:59.611Z,275.00
2023-04-15T04:37:59.590Z,295.00
2023-04-15T04:38:59.896Z,320.00
2023-04-15T04:39:59.602Z,343.00
2023-04-15T04:40:59.579Z,370.00
2023-04-15T04:41:59.552Z,394.00
2023-04-15T04:42:59.581Z,421.00
2023-04-15T04:43:59.600Z,446.00
2023-04-15T04:44:59.540Z,470.00
2023-04-15T04:45:59.573Z,495.00
2023-04-15T04:46:59.546Z,523.00
2023-04-15T04:47:59.609Z,555.00
2023-04-15T04:48:59.534Z,590.00
2023-04-15T04:49:59.509Z,627.00
2023-04-15T04:50:59.492Z,654.00
2023-04-15T04:51:59.464Z,682.00
2023-04-15T04:52:59.469Z,718.00
2023-04-15T04:54:00.072Z,754.00
2023-04-15T04:54:59.426Z,795.00
2023-04-15T04:55:59.471Z,841.00
2023-04-15T04:56:59.468Z,890.00
2023-04-15T04:57:59.405Z,942.00
2023-04-15T04:58:59.603Z,1002.00
2023-04-15T04:59:59.394Z,1053.00
2023-04-15T05:00:59.507Z,1093.00
2023-04-15T05:01:59.425Z,1130.00
2023-04-15T05:02:59.537Z,1157.00
2023-04-15T05:03:59.427Z,1165.00
2023-04-15T05:04:59.333Z,1183.00
2023-04-15T05:05:59.319Z,1212.00
2023-04-15T05:06:59.336Z,1246.00
2023-04-15T05:07:59.362Z,1289.00
2023-04-15T05:08:59.680Z,1313.00
2023-04-15T05:09:59.317Z,1338.00
2023-04-15T05:10:59.326Z,1363.00
2023-04-15T05:11:59.261Z,1396.00
2023-04-15T05:12:59.251Z,1439.00
2023-04-15T05:13:59.241Z,1469.00
2023-04-15T05:14:59.256Z,1505.00
2023-04-15T05:15:59.338Z,1550.00
2023-04-15T05:16:59.226Z,1601.00
2023-04-15T05:17:59.322Z,1649.00
2023-04-15T05:18:59.421Z,1714.00
2023-04-15T05:19:59.229Z,1778.00
2023-04-15T05:20:59.201Z,1852.00
2023-04-15T05:21:59.208Z,1900.00
2023-04-15T05:22:59.165Z,1955.00
2023-04-15T05:23:59.175Z,2003.00
2023-04-15T05:24:59.152Z,2062.00
2023-04-15T05:25:59.245Z,2104.00
2023-04-15T05:26:59.145Z,2193.00
2023-04-15T05:27:59.097Z,2292.00
2023-04-15T05:28:59.251Z,2387.00
2023-04-15T05:29:59.126Z,2478.00
2023-04-15T05:30:59.186Z,2569.00
2023-04-15T05:31:59.086Z,2674.00
2023-04-15T05:32:59.162Z,2782.00
2023-04-15T05:33:59.084Z,2896.00
2023-04-15T05:34:59.094Z,2929.00
2023-04-15T05:35:59.056Z,2984.00
2023-04-15T05:36:59.070Z,3058.00
2023-04-15T05:37:59.037Z,3139.00
2023-04-15T05:38:59.160Z,3249.00
2023-04-15T05:39:58.995Z,3316.00
2023-04-15T05:40:59.032Z,3379.00
2023-04-15T05:41:58.973Z,3456.00
2023-04-15T05:42:58.959Z,3512.00
2023-04-15T05:43:58.992Z,3573.00
2023-04-15T05:44:58.982Z,3722.00
2023-04-15T05:45:58.989Z,3663.00
2023-04-15T05:46:58.915Z,3668.00
2023-04-15T05:47:58.992Z,3737.00
2023-04-15T05:48:58.948Z,3679.00
2023-04-15T05:49:58.896Z,3646.00
2023-04-15T05:50:58.918Z,3778.00
2023-04-15T05:51:58.870Z,3659.00
2023-04-15T05:52:58.878Z,3608.00
2023-04-15T05:53:58.897Z,3480.00
2023-04-15T05:54:58.865Z,3407.00
2023-04-15T05:55:58.919Z,3341.00
2023-04-15T05:56:58.834Z,3297.00
2023-04-15T05:57:58.836Z,3254.00
2023-04-15T05:58:58.929Z,3240.00
2023-04-15T05:59:58.787Z,3209.00
2023-04-15T06:00:58.823Z,3177.00
2023-04-15T06:01:58.773Z,3160.00
2023-04-15T06:02:58.866Z,3149.00
2023-04-15T06:03:58.863Z,3133.00
2023-04-15T06:04:58.845Z,3112.00
2023-04-15T06:05:58.734Z,3094.00
2023-04-15T06:06:58.763Z,3094.00
2023-04-15T06:07:58.726Z,3092.00
2023-04-15T06:08:58.697Z,3101.00
2023-04-15T06:09:58.728Z,3114.00
2023-04-15T06:10:58.733Z,3152.00
2023-04-15T06:11:58.704Z,3178.00
2023-04-15T06:12:58.688Z,3219.00
2023-04-15T06:13:58.662Z,3266.00
2023-04-15T06:15:00.103Z,3340.00
2023-04-15T06:15:58.657Z,3416.00
2023-04-15T06:16:58.656Z,3515.00
2023-04-15T06:17:58.682Z,3640.00
2023-04-15T06:18:58.716Z,3741.00
2023-04-15T06:19:58.590Z,3817.00
2023-04-15T06:20:58.612Z,3879.00
2023-04-15T06:21:58.586Z,3964.00
2023-04-15T06:22:58.849Z,4091.00
2023-04-15T06:23:58.568Z,4278.00
2023-04-15T06:24:58.563Z,4477.00
2023-04-15T06:25:58.552Z,4666.00
2023-04-15T06:26:58.565Z,4830.00
2023-04-15T06:27:58.531Z,4950.00
2023-04-15T06:28:58.704Z,5065.00
2023-04-15T06:29:58.499Z,5166.00
2023-04-15T06:30:58.488Z,5295.00
2023-04-15T06:31:58.558Z,5415.00
2023-04-15T06:32:58.499Z,5543.00
2023-04-15T06:33:58.466Z,5704.00
2023-04-15T06:34:58.479Z,5908.00
2023-04-15T06:35:58.487Z,6020.00
2023-04-15T06:36:58.435Z,6371.00
2023-04-15T06:37:58.433Z,6329.00
2023-04-15T06:38:58.415Z,6464.00
2023-04-15T06:39:58.406Z,6490.00
2023-04-15T06:40:58.405Z,6614.00
2023-04-15T06:41:58.418Z,6645.00
2023-04-15T06:42:58.384Z,6862.00
2023-04-15T06:43:58.366Z,6771.00
2023-04-15T06:44:58.346Z,6837.00
2023-04-15T06:45:58.427Z,7008.00
2023-04-15T06:46:58.338Z,7039.00
2023-04-15T06:47:58.371Z,7157.00
2023-04-15T06:48:58.315Z,7267.00
2023-04-15T06:49:58.306Z,7432.00
2023-04-15T06:50:58.334Z,7720.00
2023-04-15T06:51:58.318Z,7755.00
2023-04-15T06:52:58.278Z,8302.00
2023-04-15T06:53:58.310Z,7846.00
2023-04-15T06:54:58.306Z,8204.00
2023-04-15T06:55:58.242Z,8214.00
2023-04-15T06:56:58.262Z,8155.00
2023-04-15T06:57:58.271Z,8191.00
2023-04-15T06:58:58.220Z,8282.00
2023-04-15T06:59:58.189Z,8388.00
2023-04-15T07:00:58.232Z,9355.00
2023-04-15T07:01:58.274Z,10063.00
2023-04-15T07:02:58.215Z,9891.00
2023-04-15T07:03:58.154Z,9641.00
2023-04-15T07:04:58.179Z,9877.00
2023-04-15T07:05:58.131Z,9885.00
2023-04-15T07:06:58.133Z,10487.00
2023-04-15T07:07:58.115Z,14516.00
2023-04-15T07:08:58.097Z,12919.00
2023-04-15T07:09:58.125Z,16106.00
2023-04-15T07:10:58.069Z,15481.00
2023-04-15T07:11:58.072Z,16462.00
2023-04-15T07:12:58.121Z,16586.00
2023-04-15T07:13:58.051Z,17798.00
2023-04-15T07:14:58.038Z,20832.00
2023-04-15T07:15:58.031Z,18471.00
2023-04-15T07:16:58.072Z,15284.00
2023-04-15T07:17:58.078Z,15980.00
2023-04-15T07:18:57.991Z,12455.00
2023-04-15T07:19:57.986Z,18090.00
2023-04-15T07:20:57.978Z,19267.00
2023-04-15T07:21:57.964Z,16501.00
2023-04-15T07:22:57.946Z,14361.00
2023-04-15T07:23:57.983Z,15635.00
2023-04-15T07:24:57.941Z,16600.00
2023-04-15T07:25:57.922Z,15556.00
2023-04-15T07:26:59.414Z,15258.00
2023-04-15T07:27:57.896Z,14507.00
2023-04-15T07:28:57.915Z,13066.00
2023-04-15T07:29:57.902Z,12807.00
2023-04-15T07:30:57.896Z,13464.00
2023-04-15T07:31:57.870Z,12206.00
2023-04-15T07:32:57.895Z,12170.00
2023-04-15T07:33:57.890Z,11176.00
2023-04-15T07:34:57.858Z,10507.00
2023-04-15T07:35:57.812Z,10534.00
2023-04-15T07:36:57.815Z,10101.00
2023-04-15T07:37:57.809Z,9765.00
2023-04-15T07:38:57.818Z,10584.00
2023-04-15T07:39:57.778Z,12762.00
2023-04-15T07:40:57.840Z,11499.00
2023-04-15T07:41:57.798Z,11546.00
2023-04-15T07:42:57.749Z,11570.00
2023-04-15T07:43:57.750Z,10929.00
2023-04-15T07:44:57.727Z,11251.00
2023-04-15T07:45:57.823Z,10895.00
2023-04-15T07:46:57.708Z,10488.00
2023-04-15T07:47:57.713Z,10617.00
2023-04-15T07:48:57.738Z,10070.00
2023-04-15T07:49:57.687Z,11993.00
2023-04-15T07:50:57.665Z,13071.00
2023-04-15T07:51:57.674Z,13498.00
2023-04-15T07:52:57.668Z,12007.00
2023-04-15T07:53:57.628Z,13027.00
2023-04-15T07:54:57.644Z,12045.00
2023-04-15T07:55:57.640Z,12936.00
2023-04-15T07:56:57.603Z,14178.00
2023-04-15T07:57:57.614Z,12988.00
2023-04-15T07:58:57.624Z,18756.00
2023-04-15T07:59:57.578Z,16810.00
2023-04-15T08:00:57.577Z,13506.00
2023-04-15T08:01:57.621Z,18880.00
2023-04-15T08:02:57.726Z,20039.00
2023-04-15T08:03:57.634Z,15514.00
2023-04-15T08:04:57.588Z,12937.00
2023-04-15T08:05:57.508Z,12698.00
2023-04-15T08:06:57.506Z,12982.00
2023-04-15T08:07:57.508Z,12765.00
2023-04-15T08:08:57.625Z,12964.00
2023-04-15T08:09:57.547Z,12568.00
2023-04-15T08:10:57.485Z,11849.00
2023-04-15T08:11:57.454Z,14071.00
2023-04-15T08:12:57.440Z,15784.00
2023-04-15T08:13:57.442Z,14132.00
2023-04-15T08:14:57.432Z,14196.00
2023-04-15T08:15:57.497Z,11834.00
2023-04-15T08:16:57.477Z,12892.00
2023-04-15T08:17:57.429Z,12866.00
2023-04-15T08:18:57.420Z,19257.00
2023-04-15T08:19:57.681Z,16399.00
2023-04-15T08:20:57.352Z,16897.00
2023-04-15T08:21:57.434Z,16138.00
2023-04-15T08:22:57.360Z,13659.00
2023-04-15T08:23:57.365Z,12685.00
2023-04-15T08:24:57.309Z,12718.00
2023-04-15T08:25:57.324Z,13165.00
2023-04-15T08:26:57.295Z,12575.00
2023-04-15T08:27:57.395Z,11386.00
2023-04-15T08:28:57.426Z,11067.00
2023-04-15T08:29:57.260Z,11067.00
2023-04-15T08:30:57.268Z,10984.00
2023-04-15T08:31:57.370Z,10841.00
2023-04-15T08:32:57.304Z,11850.00
2023-04-15T08:33:57.250Z,12544.00
2023-04-15T08:34:57.216Z,12475.00
2023-04-15T08:35:57.191Z,15198.00
2023-04-15T08:36:57.185Z,14852.00
2023-04-15T08:37:57.203Z,14312.00
2023-04-15T08:38:57.207Z,17229.00
2023-04-15T08:39:57.151Z,22189.00
2023-04-15T08:40:57.150Z,24356.00
2023-04-15T08:41:57.167Z,15576.00
2023-04-15T08:42:57.129Z,19031.00
2023-04-15T08:43:57.114Z,21746.00
2023-04-15T08:44:57.108Z,19660.00
2023-04-15T08:45:57.088Z,20057.00
2023-04-15T08:46:57.165Z,12702.00
2023-04-15T08:47:57.137Z,23376.00
2023-04-15T08:48:57.069Z,28226.00
2023-04-15T08:49:57.075Z,31552.00
2023-04-15T08:50:57.048Z,30980.00
2023-04-15T08:51:57.036Z,36841.00
2023-04-15T08:52:57.031Z,36297.00
2023-04-15T08:53:57.028Z,36422.00
2023-04-15T08:54:57.008Z,22062.00
2023-04-15T08:55:56.995Z,21154.00
2023-04-15T08:56:56.999Z,71314.00
2023-04-15T08:57:56.987Z,33037.00
2023-04-15T08:58:57.033Z,39309.00
2023-04-15T08:59:56.952Z,15668.00
2023-04-15T09:00:56.962Z,74484.00
2023-04-15T09:01:56.974Z,71631.00
2023-04-15T09:02:56.986Z,35408.00
2023-04-15T09:03:56.964Z,30809.00
2023-04-15T09:04:56.913Z,37279.00
2023-04-15T09:05:56.933Z,36854.00
2023-04-15T09:06:56.879Z,28677.00
2023-04-15T09:07:56.889Z,18293.00
2023-04-15T09:08:56.875Z,15269.00
2023-04-15T09:09:56.906Z,15757.00
2023-04-15T09:10:56.835Z,18146.00
2023-04-15T09:11:56.837Z,16191.00
2023-04-15T09:12:56.812Z,23868.00
2023-04-15T09:13:56.815Z,28963.00
2023-04-15T09:14:56.795Z,75314.00
2023-04-15T09:15:56.802Z,75546.00
2023-04-15T09:16:56.894Z,67888.00
2023-04-15T09:17:56.834Z,29009.00
2023-04-15T09:18:56.764Z,20977.00
2023-04-15T09:19:56.769Z,6051.00
2023-04-15T09:20:56.740Z,61864.00
2023-04-15T09:21:58.969Z,16612.00
2023-04-15T09:22:56.793Z,17587.00
2023-04-15T09:23:56.707Z,14803.00
2023-04-15T09:24:56.705Z,14362.00
2023-04-15T09:25:56.680Z,5604.00
2023-04-15T09:26:56.673Z,30586.00
2023-04-15T09:27:56.697Z,29129.00
2023-04-15T09:28:56.680Z,30941.00
2023-04-15T09:29:56.650Z,30626.00
2023-04-15T09:30:56.683Z,75177.00
2023-04-15T09:31:56.616Z,72374.00
2023-04-15T09:32:56.676Z,41269.00
2023-04-15T09:33:56.630Z,28675.00
2023-04-15T09:34:56.580Z,35462.00
2023-04-15T09:35:56.573Z,27837.00
2023-04-15T09:36:56.572Z,24986.00
2023-04-15T09:37:56.565Z,21632.00
2023-04-15T09:38:56.565Z,6008.00
2023-04-15T09:39:56.537Z,27687.00
2023-04-15T09:40:56.521Z,73445.00
2023-04-15T09:41:56.526Z,73912.00
2023-04-15T09:42:56.532Z,73544.00
2023-04-15T09:43:56.512Z,69869.00
2023-04-15T09:44:56.498Z,33529.00
2023-04-15T09:45:56.513Z,20813.00
2023-04-15T09:46:56.457Z,17661.00
2023-04-15T09:47:57.687Z,17311.00
2023-04-15T09:48:56.466Z,16668.00
2023-04-15T09:49:56.548Z,16923.00
2023-04-15T09:50:56.434Z,16753.00
2023-04-15T09:52:05.086Z,17536.00
2023-04-15T09:52:56.439Z,16951.00
2023-04-15T09:53:56.417Z,16331.00
2023-04-15T09:54:56.386Z,17195.00
2023-04-15T09:55:56.390Z,17187.00
2023-04-15T09:56:56.358Z,17188.00
2023-04-15T09:57:56.362Z,17129.00
2023-04-15T09:58:56.349Z,16887.00
2023-04-15T09:59:56.334Z,16737.00
2023-04-15T10:00:56.358Z,16454.00
2023-04-15T10:01:56.385Z,16356.00
2023-04-15T10:02:56.446Z,16205.00
2023-04-15T10:03:56.350Z,15911.00
2023-04-15T10:04:56.292Z,15787.00
2023-04-15T10:05:56.323Z,16030.00
2023-04-15T10:06:56.267Z,16518.00
2023-04-15T10:07:56.249Z,16670.00
2023-04-15T10:08:56.237Z,16617.00
2023-04-15T10:09:56.302Z,16962.00
2023-04-15T10:10:56.234Z,18748.00
2023-04-15T10:11:56.277Z,18621.00
2023-04-15T10:12:56.191Z,20108.00
2023-04-15T10:13:56.195Z,25963.00
2023-04-15T10:14:56.174Z,27613.00
2023-04-15T10:15:56.217Z,24089.00
2023-04-15T10:16:56.168Z,24805.00
2023-04-15T10:17:56.228Z,25097.00
2023-04-15T10:18:56.133Z,27523.00
2023-04-15T10:19:56.146Z,27984.00
2023-04-15T10:20:56.118Z,30033.00
2023-04-15T10:21:56.153Z,28825.00
2023-04-15T10:22:56.096Z,27805.00
2023-04-15T10:23:56.088Z,26699.00
2023-04-15T10:24:56.074Z,25200.00
2023-04-15T10:25:56.123Z,24805.00
2023-04-15T10:26:56.105Z,24021.00
2023-04-15T10:27:56.079Z,25830.00
2023-04-15T10:28:56.046Z,26513.00
2023-04-15T10:29:56.058Z,24206.00
2023-04-15T10:30:56.138Z,23691.00
2023-04-15T10:31:56.136Z,23473.00
2023-04-15T10:32:56.129Z,24156.00
2023-04-15T10:33:55.989Z,27475.00
2023-04-15T10:34:55.991Z,26640.00
2023-04-15T10:35:55.963Z,26340.00
2023-04-15T10:36:55.954Z,23964.00
2023-04-15T10:37:55.949Z,26957.00
2023-04-15T10:38:55.928Z,30038.00
2023-04-15T10:39:55.920Z,31508.00
2023-04-15T10:40:55.924Z,33581.00
2023-04-15T10:41:55.926Z,30681.00
2023-04-15T10:42:55.882Z,31288.00
2023-04-15T10:43:55.891Z,75375.00
2023-04-15T10:44:55.869Z,72372.00
2023-04-15T10:45:55.877Z,41985.00
2023-04-15T10:46:55.923Z,34008.00
2023-04-15T10:47:55.882Z,27793.00
2023-04-15T10:48:55.889Z,27098.00
2023-04-15T10:49:55.840Z,30412.00
2023-04-15T10:50:55.816Z,28432.00
2023-04-15T10:51:55.800Z,35650.00
2023-04-15T10:52:55.813Z,22713.00
2023-04-15T10:53:55.870Z,73013.00
2023-04-15T10:54:55.863Z,74337.00
2023-04-15T10:55:55.751Z,79180.00
2023-04-15T10:56:55.745Z,74726.00
2023-04-15T10:57:55.747Z,72557.00
2023-04-15T10:58:55.790Z,72793.00
2023-04-15T10:59:55.719Z,42093.00
2023-04-15T11:00:55.730Z,34914.00
2023-04-15T11:01:55.757Z,30020.00
2023-04-15T11:02:55.780Z,26030.00
2023-04-15T11:03:55.962Z,22997.00
2023-04-15T11:04:55.809Z,25889.00
2023-04-15T11:05:55.656Z,27268.00
2023-04-15T11:06:55.648Z,21828.00
2023-04-15T11:07:55.775Z,24970.00
2023-04-15T11:08:55.637Z,26536.00
2023-04-15T11:09:55.613Z,18407.00
2023-04-15T11:10:55.597Z,16231.00
2023-04-15T11:11:55.587Z,26284.00
2023-04-15T11:12:55.599Z,16546.00
2023-04-15T11:13:55.584Z,28667.00
2023-04-15T11:14:55.580Z,15718.00
2023-04-15T11:15:55.554Z,24068.00
2023-04-15T11:16:55.542Z,31767.00
2023-04-15T11:17:55.547Z,20453.00
2023-04-15T11:18:55.530Z,8443.00
2023-04-15T11:19:55.507Z,70249.00
2023-04-15T11:20:55.519Z,31343.00
2023-04-15T11:21:55.480Z,36615.00
2023-04-15T11:23:14.495Z,30155.00
2023-04-15T11:23:55.487Z,26366.00
2023-04-15T11:24:55.453Z,24044.00
2023-04-15T11:25:55.442Z,22753.00
2023-04-15T11:26:55.451Z,20804.00
2023-04-15T11:27:55.433Z,19215.00
2023-04-15T11:28:55.415Z,18103.00
2023-04-15T11:29:55.419Z,17826.00
2023-04-15T11:30:55.409Z,16241.00
2023-04-15T11:31:55.466Z,15123.00
2023-04-15T11:32:55.437Z,14626.00
2023-04-15T11:33:55.365Z,14155.00
2023-04-15T11:34:55.345Z,13952.00
2023-04-15T11:35:55.433Z,14133.00
2023-04-15T11:36:55.334Z,12386.00
2023-04-15T11:37:55.345Z,11558.00
2023-04-15T11:38:55.328Z,10292.00
2023-04-15T11:39:55.309Z,10738.00
2023-04-15T11:40:55.356Z,11715.00
2023-04-15T11:41:55.281Z,12891.00
2023-04-15T11:42:55.271Z,13854.00
2023-04-15T11:43:55.279Z,14414.00
2023-04-15T11:44:55.275Z,14894.00
2023-04-15T11:45:55.294Z,14894.00
2023-04-15T11:46:55.237Z,15128.00
2023-04-15T11:47:55.310Z,14948.00
2023-04-15T11:48:55.275Z,14925.00
2023-04-15T11:49:55.337Z,14334.00
2023-04-15T11:50:55.197Z,16062.00
2023-04-15T11:51:55.189Z,16822.00
2023-04-15T11:52:55.177Z,15917.00
2023-04-15T11:53:55.179Z,16883.00
2023-04-15T11:54:55.154Z,16883.00
2023-04-15T11:55:55.149Z,18914.00
2023-04-15T11:56:55.129Z,17511.00
2023-04-15T11:57:55.150Z,24665.00
2023-04-15T11:58:55.110Z,16370.00
2023-04-15T11:59:55.160Z,13830.00
2023-04-15T12:00:55.103Z,12513.00
2023-04-15T12:01:55.199Z,12617.00
2023-04-15T12:02:55.207Z,13000.00
2023-04-15T12:03:55.186Z,12912.00
2023-04-15T12:04:55.077Z,17134.00
2023-04-15T12:05:55.102Z,16928.00
2023-04-15T12:06:55.045Z,16594.00
2023-04-15T12:07:55.019Z,14435.00
2023-04-15T12:08:55.050Z,12453.00
2023-04-15T12:09:54.993Z,12899.00
2023-04-15T12:10:54.995Z,12163.00
2023-04-15T12:11:55.052Z,9741.00
2023-04-15T12:12:54.958Z,16412.00
2023-04-15T12:13:55.009Z,18527.00
2023-04-15T12:14:54.953Z,15958.00
2023-04-15T12:15:54.943Z,12694.00
2023-04-15T12:16:54.943Z,12929.00
2023-04-15T12:17:55.002Z,12013.00
2023-04-15T12:18:54.909Z,11010.00
2023-04-15T12:19:54.915Z,9647.00
2023-04-15T12:20:54.871Z,8758.00